Time;durP1;ratioP1;P1;durP2;ratioP2;P2;SDS_P1;SDS_P2;PMS_P1;PMS_P2;Temp;Humidity;BMP_temperature;BMP_pressure;BME280_temperature;BME280_humidity;BME280_pressure;Samples;Min_cycle;Max_cycle;Signal;HPM_P1;HPM_P2
2022/08/13 00:01:30;;;;;;;5.68;3.30;;;;;;;18.23;50.03;99620.16;5088990;28;20043;-66
2022/08/13 00:03:57;;;;;;;11.65;2.85;;;;;;;18.17;49.94;99613.50;5103687;28;20075;-68
2022/08/13 00:06:57;;;;;;;6.22;3.28;;;;;;;18.10;50.11;99611.50;5072588;28;20059;-67
2022/08/13 00:09:15;;;;;;;5.72;2.45;;;;;;;18.06;50.22;99610.88;5072101;28;20048;-67
2022/08/13 00:14:32;;;;;;;6.43;3.33;;;;;;;18.03;50.09;99611.16;5091415;28;20059;-67
2022/08/13 00:17:00;;;;;;;6.85;2.97;;;;;;;17.97;50.29;99611.66;5092254;28;20059;-69
2022/08/13 00:19:30;;;;;;;5.75;2.20;;;;;;;17.91;50.22;99617.50;5092039;28;20130;-68
2022/08/13 00:21:57;;;;;;;5.10;2.58;;;;;;;17.87;50.20;99616.03;5092018;28;20044;-67
2022/08/13 00:24:23;;;;;;;7.10;2.40;;;;;;;17.86;50.64;99619.69;5091317;28;20054;-65
2022/08/13 00:26:51;;;;;;;3.15;2.28;;;;;;;17.87;50.31;99610.72;5091538;28;20048;-68
2022/08/13 00:29:18;;;;;;;5.95;2.83;;;;;;;17.90;49.99;99608.66;5091776;28;20048;-67
2022/08/13 00:31:49;;;;;;;5.28;3.33;;;;;;;17.92;50.22;99608.53;5091855;28;20059;-66
2022/08/13 00:34:17;;;;;;;4.30;2.40;;;;;;;17.89;50.59;99614.09;5091048;28;20448;-68
2022/08/13 00:36:44;;;;;;;6.30;2.90;;;;;;;17.85;50.09;99615.34;5091770;28;20071;-66
2022/08/13 00:39:11;;;;;;;7.20;1.95;;;;;;;17.82;50.06;99616.44;5090432;28;20048;-67
2022/08/13 00:41:41;;;;;;;4.00;2.33;;;;;;;17.85;49.78;99613.53;5091651;28;20048;-67
2022/08/13 00:44:11;;;;;;;3.45;2.17;;;;;;;17.89;49.82;99608.78;5090771;28;20138;-66
2022/08/13 00:46:39;;;;;;;5.43;2.80;;;;;;;17.87;50.11;99613.38;5091486;28;20054;-68
2022/08/13 00:49:07;;;;;;;4.88;2.13;;;;;;;17.80;50.56;99615.72;5091600;28;20055;-65
2022/08/13 00:51:35;;;;;;;5.68;2.33;;;;;;;17.75;50.61;99617.88;5091529;28;20075;-67
2022/08/13 00:54:03;;;;;;;5.95;2.88;;;;;;;17.68;50.82;99617.53;5090651;28;20060;-65
2022/08/13 00:56:31;;;;;;;6.22;2.15;;;;;;;17.59;50.90;99613.78;5090760;28;20070;-68
2022/08/13 00:59:00;;;;;;;4.20;2.30;;;;;;;17.54;50.70;99609.81;5101813;28;20116;-68
2022/08/13 01:01:28;;;;;;;4.97;2.97;;;;;;;17.46;50.67;99613.09;5111607;28;20047;-66
2022/08/13 01:03:55;;;;;;;5.18;2.97;;;;;;;17.41;51.53;99609.13;5110976;28;20530;-66
2022/08/13 01:06:23;;;;;;;3.75;2.55;;;;;;;17.39;51.25;99610.06;5091181;28;20055;-68
2022/08/13 01:08:53;;;;;;;5.40;3.05;;;;;;;17.36;51.75;99618.31;5087905;28;20140;-66
2022/08/13 01:11:22;;;;;;;10.45;2.78;;;;;;;17.39;51.91;99611.91;5091148;28;20051;-67
2022/08/13 01:13:51;;;;;;;5.35;2.42;;;;;;;17.29;52.20;99616.28;5090974;28;20052;-66
2022/08/13 01:16:18;;;;;;;4.50;2.42;;;;;;;17.21;52.42;99608.88;5090916;28;20052;-68
2022/08/13 01:18:48;;;;;;;7.95;5.10;;;;;;;17.20;52.37;99604.50;5090707;28;20052;-66
2022/08/13 01:21:17;;;;;;;5.20;3.17;;;;;;;17.28;51.77;99606.59;5091016;28;20051;-68
2022/08/13 01:23:50;;;;;;;6.47;4.07;;;;;;;17.25;52.29;99604.16;5090852;28;20521;-67
2022/08/13 01:26:19;;;;;;;3.95;2.40;;;;;;;17.19;52.48;99604.66;5090466;28;20036;-68
2022/08/13 01:28:47;;;;;;;3.08;2.05;;;;;;;17.21;51.47;99602.72;5090864;28;20058;-66
2022/08/13 01:31:15;;;;;;;4.50;1.95;;;;;;;17.11;52.22;99608.78;5090553;28;20130;-67
2022/08/13 01:33:43;;;;;;;7.18;2.47;;;;;;;17.04;52.45;99610.22;5090760;28;20139;-67
2022/08/13 01:36:12;;;;;;;5.65;1.90;;;;;;;17.08;51.98;99608.16;5090198;28;20466;-67
2022/08/13 01:38:40;;;;;;;4.00;1.90;;;;;;;17.12;52.07;99607.78;5090592;28;20075;-66
2022/08/13 01:41:09;;;;;;;6.22;2.35;;;;;;;17.07;51.99;99612.63;5090477;28;20046;-65
2022/08/13 01:43:38;;;;;;;5.03;2.00;;;;;;;16.98;52.23;99607.19;5090317;28;20043;-66
2022/08/13 01:46:06;;;;;;;5.82;2.42;;;;;;;16.95;52.31;99606.44;5089520;28;20052;-67
2022/08/13 01:51:21;;;;;;;;;;;;;;;16.86;52.97;99607.19;5090327;28;20054;-67
2022/08/13 01:53:49;;;;;;;5.63;2.28;;;;;;;16.86;52.54;99609.88;5091224;28;19927;-67
2022/08/13 01:56:21;;;;;;;5.38;1.88;;;;;;;16.87;53.05;99605.38;5098634;27;20051;-67
2022/08/13 01:58:49;;;;;;;3.78;2.22;;;;;;;16.87;52.36;99602.72;5110914;28;20048;-66
2022/08/13 02:01:17;;;;;;;7.78;2.10;;;;;;;16.89;52.83;99600.78;5110612;28;20182;-66
2022/08/13 02:03:49;;;;;;;3.60;2.20;;;;;;;16.93;51.85;99599.56;5110342;28;20044;-67
2022/08/13 02:06:21;;;;;;;3.03;1.85;;;;;;;16.91;52.43;99601.53;5090716;27;20059;-67
2022/08/13 02:08:50;;;;;;;4.20;2.30;;;;;;;16.86;52.80;99601.88;5089908;28;20072;-66
2022/08/13 02:11:18;;;;;;;3.42;1.90;;;;;;;16.81;53.09;99598.72;5090050;28;20093;-67
2022/08/13 02:13:45;;;;;;;2.60;2.10;;;;;;;16.70;53.27;99601.34;5090003;28;20466;-66
2022/08/13 02:16:12;;;;;;;4.72;2.17;;;;;;;16.62;53.83;99603.75;5089108;28;20058;-66
2022/08/13 02:18:38;;;;;;;2.65;1.88;;;;;;;16.52;53.86;99606.28;5089919;28;20052;-66
2022/08/13 02:21:06;;;;;;;6.57;2.95;;;;;;;16.42;54.60;99605.28;5089829;28;20044;-66
2022/08/13 02:23:34;;;;;;;3.78;2.42;;;;;;;16.47;54.07;99601.28;5089572;28;20566;-67
2022/08/13 02:26:03;;;;;;;7.18;2.65;;;;;;;16.48;54.71;99610.97;5089006;28;20048;-66
2022/08/13 02:28:32;;;;;;;3.47;2.40;;;;;;;16.47;54.22;99616.44;5089765;28;20556;-67
2022/08/13 02:30:58;;;;;;;8.13;2.38;;;;;;;16.53;53.62;99608.78;5089889;28;20047;-68
2022/08/13 02:33:26;;;;;;;4.47;1.90;;;;;;;16.51;54.30;99608.09;5089659;28;20051;-68
2022/08/13 02:35:54;;;;;;;2.70;1.90;;;;;;;16.45;54.04;99607.69;5088992;28;20056;-68
2022/08/13 02:38:21;;;;;;;3.63;2.42;;;;;;;16.41;54.32;99606.22;5089955;28;20598;-67
2022/08/13 02:43:33;;;;;;;4.22;2.30;;;;;;;16.27;54.78;99607.31;5089617;28;20058;-67
2022/08/13 02:46:01;;;;;;;5.65;2.03;;;;;;;16.23;55.34;99611.16;5088755;28;20044;-67
2022/08/13 02:48:29;;;;;;;5.47;2.03;;;;;;;16.13;55.68;99607.50;5089312;28;20113;-69
2022/08/13 02:50:58;;;;;;;6.18;2.38;;;;;;;16.10;55.63;99605.91;5097583;28;20158;-68
2022/08/13 02:53:25;;;;;;;7.78;2.10;;;;;;;16.13;55.67;99602.16;5104160;28;20527;-67
2022/08/13 02:55:52;;;;;;;3.33;2.33;;;;;;;16.12;55.70;99601.31;5109005;28;20515;-68
2022/08/13 02:58:20;;;;;;;3.60;2.22;;;;;;;16.10;55.60;99601.44;5109376;28;20187;-67
2022/08/13 03:00:49;;;;;;;3.20;2.08;;;;;;;16.12;55.65;99597.78;5109576;28;20051;-67
2022/08/13 03:03:17;;;;;;;3.50;2.20;;;;;;;16.08;55.64;99607.81;5113924;28;20043;-67
2022/08/13 03:05:43;;;;;;;5.03;2.30;;;;;;;16.03;55.83;99610.81;5098353;28;20051;-66
2022/08/13 03:08:11;;;;;;;3.35;2.17;;;;;;;16.00;56.26;99611.06;5093629;28;20055;-66
2022/08/13 03:10:40;;;;;;;5.43;2.20;;;;;;;15.99;56.11;99613.81;5093497;28;20051;-66
2022/08/13 03:13:17;;;;;;;4.90;1.70;;;;;;;16.01;55.84;99607.44;5093072;28;20044;-67
2022/08/13 03:15:45;;;;;;;5.82;1.88;;;;;;;16.10;55.62;99603.25;5089417;28;20048;-67
2022/08/13 03:18:13;;;;;;;4.25;1.98;;;;;;;16.05;56.04;99611.56;5092894;28;20066;-66
2022/08/13 03:20:43;;;;;;;3.67;2.15;;;;;;;16.03;55.67;99612.66;5093413;28;20052;-66
2022/08/13 03:23:10;;;;;;;3.28;2.25;;;;;;;15.99;56.08;99606.69;5093878;28;20044;-66
2022/08/13 03:25:38;;;;;;;3.53;1.90;;;;;;;16.02;55.89;99609.16;5093753;28;20139;-65
2022/08/13 03:28:06;;;;;;;3.40;2.13;;;;;;;16.04;56.16;99607.19;5093233;28;20396;-66
2022/08/13 03:30:34;;;;;;;3.97;2.40;;;;;;;16.02;55.84;99611.81;5093097;28;20048;-68
2022/08/13 03:33:05;;;;;;;3.85;2.28;;;;;;;16.07;56.07;99600.78;5093022;28;20044;-66
2022/08/13 03:35:35;;;;;;;4.68;2.55;;;;;;;16.00;56.47;99608.41;5092434;28;20048;-66
2022/08/13 03:38:01;;;;;;;3.67;2.33;;;;;;;16.00;56.28;99605.75;5092923;28;20051;-66
2022/08/13 03:41:00;;;;;;;5.25;2.42;;;;;;;16.03;56.45;99610.00;5092714;28;20056;-67
2022/08/13 03:43:17;;;;;;;5.72;2.38;;;;;;;15.99;56.76;99609.34;5092498;28;20105;-67
2022/08/13 03:45:44;;;;;;;6.32;2.20;;;;;;;15.94;56.72;99613.31;5092422;28;20044;-67
2022/08/13 03:48:13;;;;;;;7.93;2.40;;;;;;;15.91;56.91;99602.94;5104477;28;20109;-66
2022/08/13 03:50:41;;;;;;;5.80;2.20;;;;;;;15.94;56.92;99610.66;5113130;28;20501;-68
2022/08/13 03:53:09;;;;;;;4.40;2.42;;;;;;;15.93;57.17;99609.81;5112867;28;20047;-66
2022/08/13 03:55:37;;;;;;;5.45;2.10;;;;;;;15.89;57.46;99613.66;5108135;28;20058;-68
2022/08/13 03:58:04;;;;;;;4.47;2.35;;;;;;;15.89;57.36;99608.34;5073126;28;20602;-67
2022/08/13 04:00:32;;;;;;;4.55;2.20;;;;;;;15.84;57.54;99611.34;5072191;28;20052;-67
2022/08/13 04:03:00;;;;;;;4.72;2.15;;;;;;;15.85;57.45;99607.75;5072136;28;20051;-65
2022/08/13 04:05:28;;;;;;;6.65;2.63;;;;;;;15.87;57.08;99615.56;5071432;28;20044;-65
2022/08/13 04:07:56;;;;;;;3.70;1.80;;;;;;;15.85;57.25;99618.38;5072168;28;20193;-66
2022/08/13 04:10:23;;;;;;;4.63;2.30;;;;;;;15.81;57.38;99616.03;5075088;28;20127;-66
2022/08/13 04:12:49;;;;;;;5.40;2.33;;;;;;;15.79;57.52;99613.50;5092327;28;20044;-67
2022/08/13 04:15:16;;;;;;;7.13;2.92;;;;;;;15.77;57.27;99618.06;5091568;28;20056;-67
2022/08/13 04:17:42;;;;;;;4.35;1.90;;;;;;;15.75;58.02;99613.81;5092086;28;20047;-67
2022/08/13 04:20:10;;;;;;;3.08;2.00;;;;;;;15.73;57.91;99611.31;5091861;28;20062;-67
2022/08/13 04:22:38;;;;;;;3.50;2.70;;;;;;;15.72;58.00;99608.75;5092365;28;20054;-67
2022/08/13 04:25:08;;;;;;;5.03;2.92;;;;;;;15.73;57.88;99613.13;5091608;28;20048;-67
2022/08/13 04:27:35;;;;;;;5.95;2.33;;;;;;;15.71;58.19;99620.34;5092048;28;20075;-66
2022/08/13 04:30:04;;;;;;;4.75;2.35;;;;;;;15.73;58.00;99615.78;5091964;28;20048;-68
2022/08/13 04:32:40;;;;;;;4.10;2.58;;;;;;;15.77;58.01;99612.75;5091590;28;20054;-68
2022/08/13 04:35:08;;;;;;;7.07;2.45;;;;;;;15.76;57.74;99621.69;5091322;28;20048;-66
2022/08/13 04:37:35;;;;;;;7.30;2.35;;;;;;;15.80;57.85;99619.66;5091983;28;20560;-66
2022/08/13 04:40:01;;;;;;;3.22;2.03;;;;;;;15.82;57.94;99623.03;5091750;28;20447;-68
2022/08/13 04:42:44;;;;;;;4.45;2.20;;;;;;;15.83;57.99;99622.94;5098495;28;20048;-69
2022/08/13 04:45:13;;;;;;;5.88;2.25;;;;;;;15.84;57.74;99621.13;5096714;28;20143;-68
2022/08/13 04:47:41;;;;;;;3.13;2.33;;;;;;;15.85;57.99;99625.47;5111988;28;20138;-66
2022/08/13 04:50:09;;;;;;;9.82;2.55;;;;;;;15.89;57.78;99626.94;5111711;28;20053;-66
2022/08/13 04:52:35;;;;;;;6.30;5.07;;;;;;;15.88;57.93;99617.28;5111746;28;20044;-65
2022/08/13 04:55:02;;;;;;;7.97;2.53;;;;;;;15.91;58.33;99621.53;5111381;28;20043;-66
2022/08/13 04:57:30;;;;;;;4.72;1.98;;;;;;;15.93;58.24;99619.63;5111084;27;20624;-67
2022/08/13 04:59:56;;;;;;;3.22;2.15;;;;;;;15.95;58.15;99623.84;5111842;28;20054;-67
2022/08/13 05:02:23;;;;;;;4.15;2.30;;;;;;;15.98;57.90;99618.31;5111522;28;20135;-65
2022/08/13 05:04:50;;;;;;;3.22;2.17;;;;;;;16.04;57.93;99624.97;5103648;28;20050;-65
2022/08/13 05:07:17;;;;;;;3.40;2.25;;;;;;;16.08;57.99;99627.28;5091301;28;20044;-68
2022/08/13 05:09:43;;;;;;;4.15;2.17;;;;;;;16.14;57.93;99628.63;5091327;28;20051;-67
2022/08/13 05:12:11;;;;;;;4.43;2.13;;;;;;;16.23;57.90;99621.78;5091078;28;20396;-68
2022/08/13 05:14:39;;;;;;;4.15;2.40;;;;;;;16.30;57.56;99628.34;5090621;28;20055;-68
2022/08/13 05:17:07;;;;;;;6.32;2.70;;;;;;;16.38;57.89;99625.94;5091283;28;20147;-66
2022/08/13 05:19:34;;;;;;;6.47;2.55;;;;;;;16.46;57.57;99623.53;5091020;28;20052;-68
2022/08/13 05:22:01;;;;;;;4.82;2.75;;;;;;;16.53;57.50;99627.41;5091167;28;20140;-67
2022/08/13 05:24:27;;;;;;;2.83;2.20;;;;;;;16.62;57.69;99627.72;5086464;28;20130;-67
2022/08/13 05:26:54;;;;;;;5.75;2.33;;;;;;;16.69;57.71;99621.78;5091342;28;20142;-69
2022/08/13 05:29:21;;;;;;;4.22;3.17;;;;;;;16.84;59.13;99627.78;5090736;28;20048;-67
2022/08/13 05:31:52;;;;;;;6.88;3.03;;;;;;;17.02;59.03;99625.47;5090870;28;20046;-67
2022/08/13 05:34:19;;;;;;;5.07;2.75;;;;;;;17.23;59.00;99633.59;5089617;28;20040;-69
2022/08/13 05:36:46;;;;;;;4.93;2.50;;;;;;;17.38;59.71;99628.88;5090587;28;20048;-68
2022/08/13 05:39:13;;;;;;;3.65;2.33;;;;;;;17.55;59.00;99635.50;5095122;28;20143;-66
2022/08/13 05:41:41;;;;;;;4.70;2.80;;;;;;;17.68;58.59;99627.34;5102382;28;20047;-67
2022/08/13 05:44:09;;;;;;;7.65;2.47;;;;;;;17.73;58.65;99628.66;5110216;28;20075;-67
2022/08/13 05:46:36;;;;;;;4.68;2.45;;;;;;;17.87;59.07;99626.72;5110894;28;20146;-67
2022/08/13 05:49:04;;;;;;;4.65;3.17;;;;;;;17.95;57.64;99624.28;5110733;28;20051;-68
2022/08/13 05:51:32;;;;;;;6.57;2.75;;;;;;;17.98;57.16;99629.34;5097570;28;20681;-67
2022/08/13 05:53:59;;;;;;;7.47;2.85;;;;;;;18.18;57.88;99635.69;5089681;28;20541;-68
2022/08/13 05:56:28;;;;;;;6.97;2.53;;;;;;;18.32;58.37;99626.56;5089510;28;20055;-66
2022/08/13 05:58:55;;;;;;;6.50;2.58;;;;;;;18.47;57.68;99630.59;5078220;28;20058;-65
2022/08/13 06:04:11;;;;;;;3.25;2.28;;;;;;;18.75;57.29;99629.06;5068823;28;20145;-67
2022/08/13 06:06:38;;;;;;;3.42;2.55;;;;;;;18.91;57.11;99631.31;5069955;28;20049;-67
2022/08/13 06:09:06;;;;;;;5.20;2.50;;;;;;;19.03;56.81;99634.75;5070119;28;20060;-67
2022/08/13 06:11:33;;;;;;;6.13;2.80;;;;;;;19.16;55.85;99631.84;5082392;28;20507;-65
2022/08/13 06:14:00;;;;;;;6.43;2.85;;;;;;;19.23;56.22;99631.19;5089923;28;20044;-67
2022/08/13 06:16:30;;;;;;;7.45;2.80;;;;;;;19.34;55.92;99627.53;5089955;28;20699;-66
2022/08/13 06:18:58;;;;;;;5.00;2.75;;;;;;;19.46;55.86;99631.81;5089812;28;20090;-67
2022/08/13 06:21:26;;;;;;;4.00;2.83;;;;;;;19.61;55.11;99626.09;5089873;28;20056;-68
2022/08/13 06:23:54;;;;;;;5.35;2.45;;;;;;;19.69;55.37;99627.13;5089387;28;20048;-67
2022/08/13 06:26:22;;;;;;;5.63;2.88;;;;;;;19.85;54.62;99633.78;5089647;28;20052;-66
2022/08/13 06:28:52;;;;;;;3.88;2.33;;;;;;;19.98;54.11;99631.66;5089622;28;20048;-67
2022/08/13 06:31:25;;;;;;;4.07;2.33;;;;;;;20.15;53.93;99630.13;5089578;28;20058;-67
2022/08/13 06:33:55;;;;;;;4.47;2.30;;;;;;;20.33;52.34;99623.09;5088880;28;20059;-68
2022/08/13 06:36:25;;;;;;;7.40;2.85;;;;;;;20.51;51.81;99625.03;5096713;28;20461;-67
2022/08/13 06:38:57;;;;;;;4.13;2.80;;;;;;;20.68;50.91;99627.00;5108527;28;20058;-67
2022/08/13 06:41:23;;;;;;;7.50;2.85;;;;;;;20.88;49.94;99633.16;5109676;27;20048;-67
2022/08/13 06:43:53;;;;;;;7.30;2.55;;;;;;;21.05;48.26;99631.56;5109635;28;20048;-66
2022/08/13 06:46:24;;;;;;;4.72;3.08;;;;;;;21.24;48.59;99630.66;5109980;28;20044;-68
2022/08/13 06:48:52;;;;;;;5.72;2.75;;;;;;;21.42;44.32;99633.41;5110053;28;20143;-66
2022/08/13 06:51:20;;;;;;;7.57;3.17;;;;;;;21.57;45.07;99631.06;5110171;28;20046;-66
2022/08/13 06:53:47;;;;;;;8.43;3.20;;;;;;;21.76;42.85;99630.97;5109598;28;20051;-67
2022/08/13 06:56:18;;;;;;;2.90;2.08;;;;;;;21.99;42.10;99625.16;5108680;28;20047;-65
2022/08/13 06:58:47;;;;;;;5.47;2.55;;;;;;;22.22;42.05;99630.91;5110342;28;20125;-64
2022/08/13 07:01:18;;;;;;;6.15;2.15;;;;;;;22.42;41.71;99634.28;5110626;28;20045;-66
2022/08/13 07:03:45;;;;;;;6.43;2.58;;;;;;;22.57;41.62;99631.88;5109784;28;20040;-66
2022/08/13 07:06:17;;;;;;;5.35;2.35;;;;;;;22.74;40.68;99633.69;5089797;28;20056;-66
2022/08/13 07:08:44;;;;;;;10.63;2.55;;;;;;;22.90;40.97;99632.94;5089231;28;20044;-67
2022/08/13 07:11:23;;;;;;;6.38;2.38;;;;;;;23.05;40.31;99626.00;5089065;28;20048;-67
2022/08/13 07:13:54;;;;;;;7.47;2.40;;;;;;;23.27;39.98;99630.00;5088806;28;20069;-66
2022/08/13 07:16:24;;;;;;;6.38;2.55;;;;;;;23.51;39.90;99629.25;5088915;28;20048;-65
2022/08/13 07:18:51;;;;;;;4.95;2.80;;;;;;;23.67;39.77;99631.13;5088411;28;20044;-66
2022/08/13 07:21:20;;;;;;;4.90;2.38;;;;;;;23.88;39.87;99632.59;5086312;28;20054;-66
2022/08/13 07:23:49;;;;;;;4.93;1.63;;;;;;;24.19;38.79;99630.09;5088869;28;20106;-67
2022/08/13 07:26:18;;;;;;;3.85;2.50;;;;;;;24.53;38.49;99629.97;5088354;28;20079;-68
2022/08/13 07:28:46;;;;;;;8.18;2.92;;;;;;;25.03;37.44;99628.88;5088947;28;20401;-66
2022/08/13 07:31:15;;;;;;;3.03;1.90;;;;;;;25.22;37.05;99626.81;5093497;28;20089;-65
2022/08/13 07:33:43;;;;;;;3.22;2.38;;;;;;;25.28;36.78;99623.44;5100556;28;20054;-66
2022/08/13 07:36:13;;;;;;;4.28;2.20;;;;;;;25.43;37.04;99631.66;5108748;28;20051;-66
2022/08/13 07:38:40;;;;;;;3.20;2.00;;;;;;;25.66;36.74;99623.59;5110010;28;20133;-67
2022/08/13 07:41:07;;;;;;;3.00;2.13;;;;;;;25.89;36.68;99624.50;5110333;28;20058;-67
2022/08/13 07:43:39;;;;;;;3.80;2.17;;;;;;;26.15;36.02;99627.88;5110235;28;20051;-66
2022/08/13 07:46:10;;;;;;;6.82;2.53;;;;;;;26.29;34.60;99625.25;5109563;28;20138;-66
2022/08/13 07:48:38;;;;;;;18.17;3.17;;;;;;;26.44;35.22;99632.56;5113412;28;20056;-66
2022/08/13 07:51:10;;;;;;;3.60;2.45;;;;;;;26.52;34.26;99630.59;5113819;28;20044;-66
2022/08/13 07:53:39;;;;;;;2.78;1.70;;;;;;;26.77;34.35;99631.25;5079550;28;20041;-66
2022/08/13 07:56:06;;;;;;;3.58;1.88;;;;;;;27.12;33.66;99631.56;5072141;28;20460;-65
2022/08/13 07:58:34;;;;;;;3.70;2.17;;;;;;;27.69;32.84;99629.19;5080486;28;20487;-68
2022/08/13 08:01:01;;;;;;;3.30;1.80;;;;;;;27.96;32.31;99633.94;5093348;28;20741;-68
2022/08/13 08:03:32;;;;;;;7.80;2.50;;;;;;;27.87;31.97;99634.25;5092617;28;20047;-67
2022/08/13 08:06:03;;;;;;;3.83;1.58;;;;;;;27.97;29.13;99629.34;5091871;28;20138;-67
2022/08/13 08:08:30;;;;;;;4.03;1.45;;;;;;;28.08;29.32;99628.81;5092794;28;20122;-68
2022/08/13 08:10:57;;;;;;;1.55;1.30;;;;;;;28.49;27.51;99630.06;5092038;28;20044;-67
2022/08/13 08:13:24;;;;;;;2.53;1.58;;;;;;;28.71;26.71;99626.28;5091750;28;20131;-67
2022/08/13 08:15:51;;;;;;;2.42;1.75;;;;;;;28.72;27.00;99635.25;5091259;28;20105;-68
2022/08/13 08:18:17;;;;;;;3.70;2.08;;;;;;;28.90;26.04;99628.31;5091918;28;20098;-67
2022/08/13 08:20:44;;;;;;;8.57;1.60;;;;;;;29.00;26.42;99636.09;5091898;28;20062;-67
2022/08/13 08:23:13;;;;;;;1.55;1.30;;;;;;;28.70;26.19;99635.47;5091954;28;20084;-66
2022/08/13 08:25:41;;;;;;;2.72;1.52;;;;;;;28.67;26.37;99633.13;5090667;28;20050;-66
2022/08/13 08:28:10;;;;;;;2.25;1.40;;;;;;;28.76;26.18;99629.25;5099832;28;20048;-65
2022/08/13 08:30:38;;;;;;;1.50;1.10;;;;;;;28.86;26.31;99618.03;5108362;28;20050;-67
2022/08/13 08:33:04;;;;;;;2.13;1.42;;;;;;;28.94;26.27;99628.72;5112443;28;20048;-67
2022/08/13 08:35:33;;;;;;;6.05;1.38;;;;;;;28.98;25.36;99621.88;5111123;28;20056;-67
2022/08/13 08:43:34;;;;;;;4.18;1.48;;;;;;;28.75;25.68;99619.44;5112125;28;20046;-67
2022/08/13 08:46:03;;;;;;;1.70;1.52;;;;;;;28.79;26.01;99631.56;5111394;28;20047;-67
2022/08/13 08:48:32;;;;;;;6.07;1.40;;;;;;;28.72;26.03;99622.53;5112098;28;20047;-67
2022/08/13 08:51:00;;;;;;;4.32;1.42;;;;;;;28.50;26.01;99629.88;5112034;28;20047;-66
2022/08/13 08:53:28;;;;;;;2.90;1.60;;;;;;;28.69;25.97;99631.06;5096339;28;20051;-69
2022/08/13 08:55:56;;;;;;;6.45;1.85;;;;;;;28.88;25.72;99627.66;5106344;28;20108;-68
2022/08/13 08:58:23;;;;;;;3.55;1.40;;;;;;;28.77;25.00;99630.94;5090898;28;20054;-67
2022/08/13 09:00:56;;;;;;;4.00;1.70;;;;;;;28.82;25.88;99623.03;5082239;28;20470;-68
2022/08/13 09:03:27;;;;;;;2.88;1.80;;;;;;;29.08;25.77;99624.28;5070824;28;20053;-66
2022/08/13 09:05:54;;;;;;;2.97;1.73;;;;;;;29.29;25.05;99626.91;5070675;28;20105;-68
2022/08/13 09:08:24;;;;;;;3.92;2.05;;;;;;;29.30;25.02;99622.31;5071064;28;20094;-68
2022/08/13 09:10:52;;;;;;;4.80;1.80;;;;;;;29.36;24.83;99615.22;5071020;28;20056;-65
2022/08/13 09:13:22;;;;;;;2.20;1.63;;;;;;;29.19;24.97;99610.16;5070750;28;20040;-67
2022/08/13 09:15:50;;;;;;;4.20;1.85;;;;;;;29.39;25.30;99612.09;5069969;28;20560;-67
2022/08/13 09:18:19;;;;;;;4.18;1.65;;;;;;;29.28;24.98;99613.50;5070572;28;20063;-66
2022/08/13 09:20:45;;;;;;;5.10;1.70;;;;;;;29.50;24.89;99608.81;5070779;28;20144;-67
2022/08/13 09:23:15;;;;;;;1.95;1.20;;;;;;;29.78;24.33;99605.16;5076807;28;20054;-66
2022/08/13 09:25:44;;;;;;;4.82;2.38;;;;;;;30.04;24.19;99607.13;5089893;28;20056;-65
2022/08/13 09:28:12;;;;;;;5.13;1.70;;;;;;;30.71;23.14;99608.81;5091146;28;20075;-67
2022/08/13 09:30:45;;;;;;;3.83;1.65;;;;;;;31.39;22.72;99603.06;5087355;28;20052;-68
2022/08/13 09:33:12;;;;;;;2.40;1.60;;;;;;;32.36;21.02;99602.09;5090531;28;20510;-66
2022/08/13 09:35:41;;;;;;;1.58;1.48;;;;;;;33.25;20.57;99605.47;5089661;28;20052;-67
2022/08/13 09:38:08;;;;;;;3.60;2.22;;;;;;;34.07;19.69;99592.22;5090382;28;20412;-66
2022/08/13 09:40:38;;;;;;;2.72;1.83;;;;;;;34.41;19.61;99598.03;5090419;28;20044;-68
2022/08/13 09:43:08;;;;;;;11.10;2.08;;;;;;;34.85;18.80;99598.50;5090609;28;20082;-67
2022/08/13 09:45:35;;;;;;;2.03;1.80;;;;;;;34.99;18.91;99590.88;5089334;28;20043;-66
2022/08/13 09:48:08;;;;;;;3.30;1.80;;;;;;;35.19;18.36;99599.56;5090302;28;20052;-66
2022/08/13 09:50:35;;;;;;;9.10;1.97;;;;;;;34.96;18.19;99597.69;5090257;28;20130;-67
2022/08/13 09:53:01;;;;;;;3.85;2.10;;;;;;;34.81;18.47;99600.09;5086441;28;20097;-66
2022/08/13 09:55:28;;;;;;;2.42;1.45;;;;;;;35.34;18.17;99593.56;5089359;28;20047;-66
2022/08/13 09:57:59;;;;;;;4.03;2.22;;;;;;;35.32;18.46;99593.00;5090257;28;20044;-66
2022/08/13 10:00:28;;;;;;;2.05;1.65;;;;;;;35.40;18.37;99586.31;5096736;28;20054;-67
2022/08/13 10:02:59;;;;;;;2.25;1.77;;;;;;;35.44;18.38;99585.56;5101990;28;20048;-68
2022/08/13 10:05:32;;;;;;;4.32;1.90;;;;;;;35.92;17.99;99586.22;5102768;28;20063;-67
2022/08/13 10:07:59;;;;;;;2.30;1.92;;;;;;;35.94;17.64;99588.72;5089611;28;20044;-68
2022/08/13 10:10:26;;;;;;;13.48;3.13;;;;;;;35.60;17.78;99580.41;5089728;28;20048;-68
2022/08/13 10:12:57;;;;;;;4.03;1.88;;;;;;;36.22;17.59;99583.19;5089304;28;20059;-67
2022/08/13 10:15:24;;;;;;;2.47;1.60;;;;;;;36.29;17.18;99586.63;5089008;28;20048;-68
2022/08/13 10:17:53;;;;;;;3.55;2.55;;;;;;;36.15;17.24;99576.22;5089623;28;20514;-68
2022/08/13 10:20:24;;;;;;;3.05;2.17;;;;;;;36.50;16.89;99568.56;5089515;28;20048;-66
2022/08/13 10:22:53;;;;;;;4.60;1.98;;;;;;;36.91;16.44;99568.34;5089655;28;20048;-66
2022/08/13 10:25:19;;;;;;;2.80;2.20;;;;;;;36.11;16.98;99568.47;5089060;28;20051;-68
2022/08/13 10:27:47;;;;;;;3.50;2.00;;;;;;;36.08;17.44;99574.47;5089618;28;20054;-67
2022/08/13 10:30:15;;;;;;;3.38;2.30;;;;;;;36.36;17.21;99558.19;5089671;28;20056;-66
2022/08/13 10:32:41;;;;;;;5.18;1.80;;;;;;;35.75;17.79;99564.25;5089479;28;20052;-67
2022/08/13 10:35:09;;;;;;;8.35;2.40;;;;;;;35.89;17.19;99560.13;5089003;28;20139;-67
2022/08/13 10:37:43;;;;;;;4.75;2.05;;;;;;;35.96;17.47;99559.97;5089437;28;20055;-68
2022/08/13 10:40:14;;;;;;;4.45;2.00;;;;;;;35.92;17.12;99549.72;5089541;28;20044;-67
2022/08/13 10:42:44;;;;;;;3.35;1.58;;;;;;;36.28;17.22;99538.28;5089431;28;20048;-66
2022/08/13 10:45:12;;;;;;;2.15;1.48;;;;;;;36.74;16.35;99538.97;5088655;28;20047;-67
2022/08/13 10:47:46;;;;;;;2.90;1.95;;;;;;;36.40;16.58;99540.94;5089077;28;20044;-66
2022/08/13 10:50:13;;;;;;;;;;;;;;;35.98;16.84;99556.97;5089590;28;20739;-68
2022/08/13 10:52:39;;;;;;;7.53;1.80;;;;;;;36.07;16.86;99539.84;5088518;28;19920;-67
2022/08/13 10:55:08;;;;;;;3.83;1.77;;;;;;;35.63;17.34;99538.78;5088188;28;20058;-67
2022/08/13 10:57:37;;;;;;;4.30;2.10;;;;;;;35.14;18.07;99552.88;5090339;28;20108;-66
2022/08/13 11:00:05;;;;;;;2.63;1.90;;;;;;;34.35;18.51;99538.72;5089733;28;20044;-67
2022/08/13 11:02:31;;;;;;;4.32;2.17;;;;;;;34.04;19.13;99540.69;5090368;28;20078;-67
2022/08/13 11:05:00;;;;;;;3.97;1.88;;;;;;;33.62;19.77;99542.59;5089885;28;20044;-65
2022/08/13 11:07:28;;;;;;;2.88;1.60;;;;;;;33.02;20.18;99535.13;5090512;28;20059;-66
2022/08/13 11:09:54;;;;;;;7.88;1.75;;;;;;;32.47;20.59;99530.44;5089541;28;20060;-66
2022/08/13 11:12:22;;;;;;;2.08;1.40;;;;;;;32.03;20.86;99533.09;5089129;28;20157;-68
2022/08/13 11:14:51;;;;;;;6.03;1.85;;;;;;;31.91;21.05;99529.41;5088351;28;20195;-66
2022/08/13 11:17:19;;;;;;;3.55;1.85;;;;;;;31.82;21.18;99527.97;5088934;28;20066;-67
2022/08/13 11:19:48;;;;;;;4.40;1.80;;;;;;;31.72;21.56;99520.28;5088878;28;20041;-68
2022/08/13 11:22:15;;;;;;;3.20;1.70;;;;;;;31.74;21.81;99525.53;5089753;28;20514;-65
2022/08/13 11:24:42;;;;;;;3.05;1.73;;;;;;;31.77;21.65;99519.63;5092328;28;20044;-68
2022/08/13 11:27:08;;;;;;;3.45;1.52;;;;;;;31.72;21.47;99525.75;5092900;28;20422;-66
2022/08/13 11:29:35;;;;;;;6.82;1.80;;;;;;;31.64;21.80;99528.75;5091100;28;20059;-66
2022/08/13 11:32:03;;;;;;;5.18;1.73;;;;;;;31.82;22.03;99509.72;5091472;28;20052;-67
2022/08/13 11:34:30;;;;;;;4.43;1.63;;;;;;;31.61;21.67;99532.75;5092023;28;20181;-67
2022/08/13 11:36:57;;;;;;;2.50;2.00;;;;;;;31.62;21.79;99522.66;5092744;28;20048;-68
2022/08/13 11:39:23;;;;;;;4.47;1.88;;;;;;;31.44;22.03;99516.06;5092591;28;20147;-67
2022/08/13 11:41:50;;;;;;;2.75;1.67;;;;;;;31.45;22.29;99514.16;5092452;28;20143;-65
2022/08/13 11:44:17;;;;;;;4.65;1.80;;;;;;;31.18;22.46;99513.44;5091767;28;20044;-67
2022/08/13 11:46:44;;;;;;;4.25;1.67;;;;;;;31.11;22.40;99518.94;5092582;28;20687;-67
2022/08/13 11:49:12;;;;;;;3.63;1.60;;;;;;;31.19;22.44;99529.56;5089162;28;20048;-66
2022/08/13 11:51:39;;;;;;;2.17;1.80;;;;;;;31.15;22.63;99520.16;5092445;28;20054;-68
2022/08/13 11:54:06;;;;;;;2.65;1.60;;;;;;;31.31;22.29;99507.94;5095247;28;20056;-67
2022/08/13 11:56:32;;;;;;;2.47;1.80;;;;;;;31.52;22.53;99511.41;5108394;28;20055;-66